Otsego, Minnesota
Current Conditions -  °F | °C
As of 6:53 PM on Monday 24 Nov 2014 (Local Time) from KMIC Reporting Station
Overcast Overcast  
Wind Chill:   Ceiling: 2600
Heat Index: 19°   Visibility: 10mi
Dew Point: 10°   Wind: 20mph
Humidity: 68%   Direction: 310°NW
Pressure: 29.76"   Gusts: 28mph
Location:  45.1964°N, 93.4758°W
Report Text: KMIC 250053Z 31017G24KT 10SM OVC026 M07/M12 A2976 RMK AO2 SLP092 T10721122
Loading
Personal Weather Stations






























Interactive Weather Map New forecast layout! Learn more

10-Day Weather Forecast

Advertisements
Track Severe Weather on mobile